Rocky Mount, North Carolina
Current Conditions -  °F | °C
As of 4:53 PM on Sunday 25 Jan 2015 (Local Time) from KRWI Reporting Station
Clear Clear  
Wind Chill: 52°   Ceiling: Unl
Heat Index: 52°   Visibility: 10mi
Dew Point: 33°   Wind: 5mph
Humidity: 49%   Direction: 170°S
Pressure: 29.85"   Gusts: NA
Location:  35.95°N, 77.79°W
Report Text: KRWI 252153Z AUTO 17004KT 10SM CLR 11/01 A2985 RMK AO2 SLP107 T01110006
Loading
Personal Weather Stations






























Interactive Weather Map New forecast layout! Learn more

10-Day Weather Forecast

Advertisements
Track Severe Weather on mobile